• Join FlightAware (Why Join?)
  • Login
  • US Flag 
12:45PM EDT


 

Airport Tracker/Info


-or-


 

Live Flight TrackerFlight Track Log ✈ SWA2236 ✈ 14-Jul-2013 ✈ KOAK - KLAS

Flight Track Log - Related Links

Times and Time Zones

All times are in EDT time to prevent confusion due to time zone crossing. See the SWA2236 flight status page for this flight to view local times or setup timezone preferences in your user account.

Time Position Orientation Groundspeed Altitude Reporting Facility
EDT Latitude Longitude Course Direction KTS MPH feet Rate Location/Type
12:29PM 37.7333 -122.2500 302° West 160 184 1,400  Level Northern Cal TRACON
12:30PM 37.7667 -122.3167 302° West 226 260 3,800 2,700 Climbing Northern Cal TRACON
12:31PM 37.7833 -122.3833 288° West 233 268 6,800 2,760 Climbing Northern Cal TRACON
12:32PM 37.7333 -122.4167 208° Southwest 273 314 9,400 2,640 Climbing Northern Cal TRACON
12:34PM 37.5867 -122.4339 185° South 338 389 14,200 3,000 Climbing Oakland Center
12:35PM 37.5056 -122.3256 133° Southeast 357 411 17,900 3,060 Climbing Oakland Center
12:36PM 37.4642 -122.2039 113° Southeast 392 451 20,500 2,460 Climbing Oakland Center
12:37PM 37.4331 -122.0664 106° East 409 471 23,000 2,340 Climbing Oakland Center
12:38PM 37.4003 -121.9258 106° East 421 484 25,300 2,040 Climbing Oakland Center
12:39PM 37.3661 -121.7797 106° East 434 499 27,200 2,040 Climbing Oakland Center
12:40PM 37.3297 -121.6192 106° East 454 522 29,500 2,280 Climbing Oakland Center
12:41PM 37.2936 -121.4697 107° East 451 519 31,900 1,680 Climbing Oakland Center
12:42PM 37.2592 -121.3206 106° East 447 514 33,000 780 Climbing Oakland Center
12:43PM 37.2211 -121.1711 108° East 450 518 33,600 1,200 Climbing Oakland Center
12:44PM 37.1847 -121.0147 106° East 464 534 35,500 1,620 Climbing Oakland Center
12:45PM 37.1400 -120.8342 107° East 458 527 37,000 720 Climbing Oakland Center
12:46PM 37.1039 -120.6808 106° East 459 528 37,000  Level Oakland Center
12:47PM 37.0911 -120.5222 96° East 459 528 37,000  Level Oakland Center
12:48PM 37.0822 -120.3628 94° East 461 531 37,000  Level Oakland Center
12:49PM 37.0719 -120.2033 95° East 460 529 37,000  Level Oakland Center
12:50PM 37.0603 -120.0306 95° East 458 527 37,000  Level Oakland Center
12:51PM 37.0494 -119.8725 95° East 456 525 37,000  Level Oakland Center
12:52PM 37.0389 -119.7153 95° East 455 524 37,000  Level Oakland Center
12:53PM 37.0283 -119.5567 95° East 456 525 37,000  Level Oakland Center
12:54PM 37.0175 -119.3994 95° East 454 522 37,000  Level Oakland Center
12:55PM 37.0053 -119.2400 95° East 458 527 37,000  Level Oakland Center
12:56PM 36.9939 -119.0811 95° East 459 528 37,000  Level Oakland Center
12:57PM 36.9806 -118.8922 95° East 455 524 37,000  Level Oakland Center
12:58PM 36.9692 -118.7361 95° East 452 520 37,000  Level Oakland Center
12:59PM 36.9569 -118.5786 95° East 455 524 37,000  Level Oakland Center
01:00PM 36.9450 -118.4333 96° East 458 527 37,000  Level Oakland Center
01:01PM 36.9322 -118.2775 96° East 454 522 37,000  Level Oakland Center
01:02PM 36.9178 -118.0928 96° East 448 516 37,000  Level Oakland Center
01:03PM 36.9061 -117.9381 95° East 449 517 37,000 -540 Level Oakland Center
01:04PM 36.8919 -117.7814 96° East 454 522 35,900 -1,920 Descending Oakland Center
01:05PM 36.8789 -117.6275 96° East 449 517 33,100 -2,700 Descending Oakland Center
01:06PM 36.8656 -117.4708 96° East 454 522 30,400 -2,040 Descending Oakland Center
01:08PM 36.8528 -117.3164 96° East 451 519 29,000 -720 Descending Oakland Center
01:09PM 36.8383 -117.1614 97° East 450 518 29,000  Level Oakland Center
01:10PM 36.7692 -117.0008 118° Southeast 442 509 29,000  Level Oakland Center
01:11PM 36.7061 -116.8733 122° Southeast 435 501 29,000  Level Oakland Center
01:12PM 36.6411 -116.7450 122° Southeast 438 504 29,000 -420 Level Oakland Center
01:13PM 36.5756 -116.6172 123° Southeast 439 505 28,200 -1,560 Descending Oakland Center
01:14PM 36.4961 -116.4606 122° Southeast 427 491 25,400 -2,220 Descending Los Angeles Center
01:16PM 36.3622 -116.2031 123° Southeast 401 461 20,700 -2,160 Descending Los Angeles Center
01:17PM 36.3033 -116.0942 124° Southeast 383 441 18,700 -2,040 Descending Los Angeles Center
01:18PM 36.2447 -115.9819 123° Southeast 361 415 16,600 -1,320 Descending Los Angeles Center
01:19PM 36.1950 -115.8850 122° Southeast 336 387 16,000 -780 Descending Los Angeles Center
01:20PM 36.1606 -115.7761 111° Southeast 317 365 15,100 -960 Descending Los Angeles Center
01:21PM 36.1281 -115.6756 112° Southeast 316 364 14,100 -720 Descending Los Angeles Center
01:23PM 36.0684 -115.5318 111° Southeast  Level FlightAware Approximate
01:23PM 36.0703 -115.4919 111° Southeast 267 307 13,000  Level Los Angeles Center
01:24PM 36.0428 -115.4100 113° Southeast 258 297 12,200 -1,140 Descending Los Angeles Center
01:25PM 36.0294 -115.3217 101° East 264 304 10,800 -1,440 Descending Los Angeles Center
01:26PM 36.0197 -115.2103 96° East 268 308 9,200 -1,020 Descending Los Angeles Center
01:27PM 36.0144 -115.1433 96° East 247 284 8,800 -660 Descending Los Angeles Center
01:28PM 36.0078 -115.0469 95° East 248 285 7,900 -960 Descending Los Angeles Center
01:30PM 36.0042 -114.9772 94° East 226 260 6,700 -1,320 Descending Los Angeles Center
01:30PM 36.0314 -114.9436 45° Northeast 209 241 5,600 -1,560 Descending Los Angeles Center
01:31PM 36.0661 -114.9933 311° West 199 229 4,000 -1,200 Descending Los Angeles Center
01:32PM 36.0731 -115.0547 278° West 165 190 3,200 -840 Descending Los Angeles Center
01:33PM 36.0739 -115.1078 271° West 153 176 2,400 -840 Descending Los Angeles Center
01:36PM 36.0667 -115.1500 270° West  Level FlightAware Approximate